sensor_id;sensor_type;location;lat;lon;timestamp;temperature;humidity
66102;HTU21D;52883;51.094;5.880;2023-02-13T00:02:14;2.74;118.99
66102;HTU21D;52883;51.094;5.880;2023-02-13T00:04:40;2.79;118.99
66102;HTU21D;52883;51.094;5.880;2023-02-13T00:07:08;2.86;118.99
66102;HTU21D;52883;51.094;5.880;2023-02-13T00:09:36;2.78;118.99
66102;HTU21D;52883;51.094;5.880;2023-02-13T00:12:03;2.72;118.99
66102;HTU21D;52883;51.094;5.880;2023-02-13T00:14:28;2.68;118.99
66102;HTU21D;52883;51.094;5.880;2023-02-13T00:16:54;2.58;118.99
66102;HTU21D;52883;51.094;5.880;2023-02-13T00:19:19;2.53;118.99
66102;HTU21D;52883;51.094;5.880;2023-02-13T00:21:45;2.57;118.99
66102;HTU21D;52883;51.094;5.880;2023-02-13T00:24:11;2.61;118.99
66102;HTU21D;52883;51.094;5.880;2023-02-13T00:26:36;2.57;118.99
66102;HTU21D;52883;51.094;5.880;2023-02-13T00:29:04;2.57;118.99
66102;HTU21D;52883;51.094;5.880;2023-02-13T00:31:30;2.55;118.99
66102;HTU21D;52883;51.094;5.880;2023-02-13T00:33:56;2.53;118.99
66102;HTU21D;52883;51.094;5.880;2023-02-13T00:36:22;2.49;118.99
66102;HTU21D;52883;51.094;5.880;2023-02-13T00:38:49;2.41;118.99
66102;HTU21D;52883;51.094;5.880;2023-02-13T00:41:16;2.32;118.99
66102;HTU21D;52883;51.094;5.880;2023-02-13T00:43:44;2.35;118.99
66102;HTU21D;52883;51.094;5.880;2023-02-13T00:46:10;2.27;118.99
66102;HTU21D;52883;51.094;5.880;2023-02-13T00:48:36;2.17;118.99
66102;HTU21D;52883;51.094;5.880;2023-02-13T00:51:03;2.06;118.99
66102;HTU21D;52883;51.094;5.880;2023-02-13T00:53:29;1.99;118.99
66102;HTU21D;52883;51.094;5.880;2023-02-13T00:55:55;1.92;118.99
66102;HTU21D;52883;51.094;5.880;2023-02-13T00:58:22;1.84;118.99
66102;HTU21D;52883;51.094;5.880;2023-02-13T01:00:50;1.79;118.99
66102;HTU21D;52883;51.094;5.880;2023-02-13T01:03:17;1.73;118.99
66102;HTU21D;52883;51.094;5.880;2023-02-13T01:05:45;1.63;118.99
66102;HTU21D;52883;51.094;5.880;2023-02-13T01:08:12;1.54;118.99
66102;HTU21D;52883;51.094;5.880;2023-02-13T01:10:39;1.48;118.99
66102;HTU21D;52883;51.094;5.880;2023-02-13T01:13:08;1.48;118.99
66102;HTU21D;52883;51.094;5.880;2023-02-13T01:15:34;1.56;118.99
66102;HTU21D;52883;51.094;5.880;2023-02-13T01:18:00;1.57;118.99
66102;HTU21D;52883;51.094;5.880;2023-02-13T01:20:27;1.65;118.99
66102;HTU21D;52883;51.094;5.880;2023-02-13T01:22:54;1.66;118.99
66102;HTU21D;52883;51.094;5.880;2023-02-13T01:25:20;1.71;118.99
66102;HTU21D;52883;51.094;5.880;2023-02-13T01:27:46;1.66;118.99
66102;HTU21D;52883;51.094;5.880;2023-02-13T01:30:16;1.52;118.99
66102;HTU21D;52883;51.094;5.880;2023-02-13T01:32:44;1.38;118.99
66102;HTU21D;52883;51.094;5.880;2023-02-13T01:35:13;1.31;118.99
66102;HTU21D;52883;51.094;5.880;2023-02-13T01:37:40;1.42;118.99
66102;HTU21D;52883;51.094;5.880;2023-02-13T01:40:10;1.53;118.99
66102;HTU21D;52883;51.094;5.880;2023-02-13T01:42:36;1.71;118.99
66102;HTU21D;52883;51.094;5.880;2023-02-13T01:45:26;1.96;118.99
66102;HTU21D;52883;51.094;5.880;2023-02-13T01:50:59;2.34;118.99
66102;HTU21D;52883;51.094;5.880;2023-02-13T01:53:27;2.31;118.99
66102;HTU21D;52883;51.094;5.880;2023-02-13T01:56:09;2.21;118.99
66102;HTU21D;52883;51.094;5.880;2023-02-13T01:58:40;1.99;118.99
66102;HTU21D;52883;51.094;5.880;2023-02-13T02:01:08;1.81;118.99
66102;HTU21D;52883;51.094;5.880;2023-02-13T02:03:51;1.61;118.99
66102;HTU21D;52883;51.094;5.880;2023-02-13T02:06:27;1.45;118.99
66102;HTU21D;52883;51.094;5.880;2023-02-13T02:08:57;1.35;118.99
66102;HTU21D;52883;51.094;5.880;2023-02-13T02:13:58;1.09;118.99
66102;HTU21D;52883;51.094;5.880;2023-02-13T02:16:31;1.09;118.99
66102;HTU21D;52883;51.094;5.880;2023-02-13T02:19:01;1.07;118.99
66102;HTU21D;52883;51.094;5.880;2023-02-13T02:22:09;1.03;118.99
66102;HTU21D;52883;51.094;5.880;2023-02-13T02:24:59;0.91;118.99
66102;HTU21D;52883;51.094;5.880;2023-02-13T02:27:52;0.78;118.99
66102;HTU21D;52883;51.094;5.880;2023-02-13T02:30:32;0.76;118.99
66102;HTU21D;52883;51.094;5.880;2023-02-13T02:33:16;0.81;118.99
66102;HTU21D;52883;51.094;5.880;2023-02-13T02:36:18;0.79;118.99
66102;HTU21D;52883;51.094;5.880;2023-02-13T02:39:05;0.68;118.99
66102;HTU21D;52883;51.094;5.880;2023-02-13T02:44:37;0.60;118.99
66102;HTU21D;52883;51.094;5.880;2023-02-13T02:47:17;0.52;118.99
66102;HTU21D;52883;51.094;5.880;2023-02-13T02:53:25;0.42;118.99
66102;HTU21D;52883;51.094;5.880;2023-02-13T02:56:04;0.39;118.99
66102;HTU21D;52883;51.094;5.880;2023-02-13T02:58:41;0.38;118.99
66102;HTU21D;52883;51.094;5.880;2023-02-13T03:01:29;0.33;118.99
66102;HTU21D;52883;51.094;5.880;2023-02-13T03:04:30;0.24;118.99
66102;HTU21D;52883;51.094;5.880;2023-02-13T03:07:17;0.21;118.99
66102;HTU21D;52883;51.094;5.880;2023-02-13T03:09:50;0.18;118.99
66102;HTU21D;52883;51.094;5.880;2023-02-13T03:12:50;0.16;118.99
66102;HTU21D;52883;51.094;5.880;2023-02-13T03:15:42;0.13;118.99
66102;HTU21D;52883;51.094;5.880;2023-02-13T03:18:31;0.10;118.99
66102;HTU21D;52883;51.094;5.880;2023-02-13T03:21:27;0.06;118.99
66102;HTU21D;52883;51.094;5.880;2023-02-13T03:24:23;0.03;118.99
66102;HTU21D;52883;51.094;5.880;2023-02-13T03:29:43;0.16;118.99
66102;HTU21D;52883;51.094;5.880;2023-02-13T03:38:23;0.05;118.99
66102;HTU21D;52883;51.094;5.880;2023-02-13T03:41:06;0.06;118.99
66102;HTU21D;52883;51.094;5.880;2023-02-13T03:44:06;0.08;118.99
66102;HTU21D;52883;51.094;5.880;2023-02-13T03:46:37;0.08;118.99
66102;HTU21D;52883;51.094;5.880;2023-02-13T03:49:09;0.06;118.99
66102;HTU21D;52883;51.094;5.880;2023-02-13T03:52:00;0.03;118.99
66102;HTU21D;52883;51.094;5.880;2023-02-13T03:54:47;-0.05;118.99
66102;HTU21D;52883;51.094;5.880;2023-02-13T03:57:36;-0.09;118.99
66102;HTU21D;52883;51.094;5.880;2023-02-13T04:00:25;-0.14;118.99
66102;HTU21D;52883;51.094;5.880;2023-02-13T04:03:15;-0.21;118.99
66102;HTU21D;52883;51.094;5.880;2023-02-13T04:05:49;-0.21;118.99
66102;HTU21D;52883;51.094;5.880;2023-02-13T04:08:15;-0.23;118.99
66102;HTU21D;52883;51.094;5.880;2023-02-13T04:10:51;-0.17;118.99
66102;HTU21D;52883;51.094;5.880;2023-02-13T04:13:29;-0.15;118.99
66102;HTU21D;52883;51.094;5.880;2023-02-13T04:16:10;-0.09;118.99
66102;HTU21D;52883;51.094;5.880;2023-02-13T04:18:38;-0.07;118.99
66102;HTU21D;52883;51.094;5.880;2023-02-13T04:21:06;-0.06;118.99
66102;HTU21D;52883;51.094;5.880;2023-02-13T04:23:32;-0.00;118.99
66102;HTU21D;52883;51.094;5.880;2023-02-13T04:26:02;0.03;118.99
66102;HTU21D;52883;51.094;5.880;2023-02-13T04:28:29;0.03;118.99
66102;HTU21D;52883;51.094;5.880;2023-02-13T04:30:55;0.08;118.99
66102;HTU21D;52883;51.094;5.880;2023-02-13T04:33:21;0.23;118.99
66102;HTU21D;52883;51.094;5.880;2023-02-13T04:35:47;0.35;118.99
66102;HTU21D;52883;51.094;5.880;2023-02-13T04:38:13;0.38;118.99
66102;HTU21D;52883;51.094;5.880;2023-02-13T04:40:38;0.40;118.99
66102;HTU21D;52883;51.094;5.880;2023-02-13T04:43:04;0.42;118.99
66102;HTU21D;52883;51.094;5.880;2023-02-13T04:45:29;0.38;118.99
66102;HTU21D;52883;51.094;5.880;2023-02-13T04:47:56;0.37;118.99
66102;HTU21D;52883;51.094;5.880;2023-02-13T04:50:22;0.31;118.99
66102;HTU21D;52883;51.094;5.880;2023-02-13T04:52:53;0.25;118.99
66102;HTU21D;52883;51.094;5.880;2023-02-13T04:55:20;0.19;118.99
66102;HTU21D;52883;51.094;5.880;2023-02-13T04:57:46;0.10;118.99
66102;HTU21D;52883;51.094;5.880;2023-02-13T05:00:12;0.06;118.99
66102;HTU21D;52883;51.094;5.880;2023-02-13T05:02:38;0.03;118.99
66102;HTU21D;52883;51.094;5.880;2023-02-13T05:05:04;-0.02;118.99
66102;HTU21D;52883;51.094;5.880;2023-02-13T05:07:30;-0.06;118.99
66102;HTU21D;52883;51.094;5.880;2023-02-13T05:09:55;-0.11;118.99
66102;HTU21D;52883;51.094;5.880;2023-02-13T05:12:21;-0.15;118.99
66102;HTU21D;52883;51.094;5.880;2023-02-13T05:14:46;-0.19;118.99
66102;HTU21D;52883;51.094;5.880;2023-02-13T05:17:12;-0.23;118.99
66102;HTU21D;52883;51.094;5.880;2023-02-13T05:19:38;-0.26;118.99
66102;HTU21D;52883;51.094;5.880;2023-02-13T05:22:03;-0.29;118.99
66102;HTU21D;52883;51.094;5.880;2023-02-13T05:24:47;-0.34;118.99
66102;HTU21D;52883;51.094;5.880;2023-02-13T05:27:13;-0.36;118.99
66102;HTU21D;52883;51.094;5.880;2023-02-13T05:29:38;-0.41;118.99
66102;HTU21D;52883;51.094;5.880;2023-02-13T05:32:04;-0.43;118.99
66102;HTU21D;52883;51.094;5.880;2023-02-13T05:34:30;-0.44;118.99
66102;HTU21D;52883;51.094;5.880;2023-02-13T05:36:55;-0.44;118.99
66102;HTU21D;52883;51.094;5.880;2023-02-13T05:39:21;-0.39;118.99
66102;HTU21D;52883;51.094;5.880;2023-02-13T05:41:47;-0.35;118.99
66102;HTU21D;52883;51.094;5.880;2023-02-13T05:44:14;-0.29;118.99
66102;HTU21D;52883;51.094;5.880;2023-02-13T05:46:41;-0.26;118.99
66102;HTU21D;52883;51.094;5.880;2023-02-13T05:49:09;-0.28;118.99
66102;HTU21D;52883;51.094;5.880;2023-02-13T05:51:35;-0.30;118.99
66102;HTU21D;52883;51.094;5.880;2023-02-13T05:54:01;-0.31;118.99
66102;HTU21D;52883;51.094;5.880;2023-02-13T05:56:27;-0.35;118.99
66102;HTU21D;52883;51.094;5.880;2023-02-13T05:58:54;-0.35;118.99
66102;HTU21D;52883;51.094;5.880;2023-02-13T06:01:21;-0.35;118.99
66102;HTU21D;52883;51.094;5.880;2023-02-13T06:03:47;-0.35;118.99
66102;HTU21D;52883;51.094;5.880;2023-02-13T06:06:14;-0.35;118.99
66102;HTU21D;52883;51.094;5.880;2023-02-13T06:08:39;-0.40;118.99
66102;HTU21D;52883;51.094;5.880;2023-02-13T06:11:07;-0.43;118.99
66102;HTU21D;52883;51.094;5.880;2023-02-13T06:13:32;-0.50;118.99
66102;HTU21D;52883;51.094;5.880;2023-02-13T06:15:58;-0.55;118.99
66102;HTU21D;52883;51.094;5.880;2023-02-13T06:18:24;-0.57;118.99
66102;HTU21D;52883;51.094;5.880;2023-02-13T06:20:49;-0.58;118.99
66102;HTU21D;52883;51.094;5.880;2023-02-13T06:23:15;-0.58;118.99
66102;HTU21D;52883;51.094;5.880;2023-02-13T06:25:41;-0.59;118.99
66102;HTU21D;52883;51.094;5.880;2023-02-13T06:28:07;-0.61;118.99
66102;HTU21D;52883;51.094;5.880;2023-02-13T06:30:33;-0.65;118.99
66102;HTU21D;52883;51.094;5.880;2023-02-13T06:32:58;-0.68;118.99
66102;HTU21D;52883;51.094;5.880;2023-02-13T06:35:25;-0.69;118.99
66102;HTU21D;52883;51.094;5.880;2023-02-13T06:37:51;-0.69;118.99
66102;HTU21D;52883;51.094;5.880;2023-02-13T06:40:16;-0.69;118.99
66102;HTU21D;52883;51.094;5.880;2023-02-13T06:42:46;-0.70;118.99
66102;HTU21D;52883;51.094;5.880;2023-02-13T06:45:13;-0.70;118.99
66102;HTU21D;52883;51.094;5.880;2023-02-13T06:47:46;-0.66;118.99
66102;HTU21D;52883;51.094;5.880;2023-02-13T06:50:14;-0.65;118.99
66102;HTU21D;52883;51.094;5.880;2023-02-13T06:52:48;-0.62;118.99
66102;HTU21D;52883;51.094;5.880;2023-02-13T06:55:14;-0.61;118.99
66102;HTU21D;52883;51.094;5.880;2023-02-13T06:57:43;-0.61;118.99
66102;HTU21D;52883;51.094;5.880;2023-02-13T07:00:10;-0.58;118.99
66102;HTU21D;52883;51.094;5.880;2023-02-13T07:02:39;-0.54;118.99
66102;HTU21D;52883;51.094;5.880;2023-02-13T07:05:05;-0.52;118.99
66102;HTU21D;52883;51.094;5.880;2023-02-13T07:07:40;-0.49;118.99
66102;HTU21D;52883;51.094;5.880;2023-02-13T07:10:10;-0.46;118.99
66102;HTU21D;52883;51.094;5.880;2023-02-13T07:12:35;-0.41;118.99
66102;HTU21D;52883;51.094;5.880;2023-02-13T07:15:02;-0.35;118.99
66102;HTU21D;52883;51.094;5.880;2023-02-13T07:17:28;-0.28;118.99
66102;HTU21D;52883;51.094;5.880;2023-02-13T07:19:54;-0.22;118.99
66102;HTU21D;52883;51.094;5.880;2023-02-13T07:22:19;-0.14;118.99
66102;HTU21D;52883;51.094;5.880;2023-02-13T07:24:45;-0.07;118.99
66102;HTU21D;52883;51.094;5.880;2023-02-13T07:27:11;-0.01;118.99
66102;HTU21D;52883;51.094;5.880;2023-02-13T07:29:36;0.05;118.99
66102;HTU21D;52883;51.094;5.880;2023-02-13T07:32:02;0.13;118.99
66102;HTU21D;52883;51.094;5.880;2023-02-13T07:34:28;0.22;118.99
66102;HTU21D;52883;51.094;5.880;2023-02-13T07:36:53;0.34;118.99
66102;HTU21D;52883;51.094;5.880;2023-02-13T07:39:19;0.48;118.99
66102;HTU21D;52883;51.094;5.880;2023-02-13T07:41:44;0.58;118.99
66102;HTU21D;52883;51.094;5.880;2023-02-13T07:44:10;0.67;118.99
66102;HTU21D;52883;51.094;5.880;2023-02-13T07:46:36;0.71;118.99
66102;HTU21D;52883;51.094;5.880;2023-02-13T07:49:02;0.81;118.99
66102;HTU21D;52883;51.094;5.880;2023-02-13T07:51:27;0.90;118.99
66102;HTU21D;52883;51.094;5.880;2023-02-13T07:53:54;0.91;118.99
66102;HTU21D;52883;51.094;5.880;2023-02-13T07:56:21;1.09;118.99
66102;HTU21D;52883;51.094;5.880;2023-02-13T07:58:46;1.51;118.99
66102;HTU21D;52883;51.094;5.880;2023-02-13T08:01:14;1.77;118.99
66102;HTU21D;52883;51.094;5.880;2023-02-13T08:03:40;1.93;118.99
66102;HTU21D;52883;51.094;5.880;2023-02-13T08:06:07;1.86;118.99
66102;HTU21D;52883;51.094;5.880;2023-02-13T08:08:34;1.92;118.99
66102;HTU21D;52883;51.094;5.880;2023-02-13T08:11:07;1.87;118.99
66102;HTU21D;52883;51.094;5.880;2023-02-13T08:13:55;1.71;118.99
66102;HTU21D;52883;51.094;5.880;2023-02-13T08:16:21;1.61;118.99
66102;HTU21D;52883;51.094;5.880;2023-02-13T08:18:46;1.55;118.99
66102;HTU21D;52883;51.094;5.880;2023-02-13T08:21:12;1.55;118.99
66102;HTU21D;52883;51.094;5.880;2023-02-13T08:23:39;1.65;118.99
66102;HTU21D;52883;51.094;5.880;2023-02-13T08:26:05;1.77;118.99
66102;HTU21D;52883;51.094;5.880;2023-02-13T08:28:30;1.99;118.99
66102;HTU21D;52883;51.094;5.880;2023-02-13T08:30:56;2.32;118.99
66102;HTU21D;52883;51.094;5.880;2023-02-13T08:33:22;2.58;118.99
66102;HTU21D;52883;51.094;5.880;2023-02-13T08:35:47;2.81;118.99
66102;HTU21D;52883;51.094;5.880;2023-02-13T08:38:13;3.09;118.99
66102;HTU21D;52883;51.094;5.880;2023-02-13T08:40:39;3.39;118.99
66102;HTU21D;52883;51.094;5.880;2023-02-13T08:43:05;3.67;118.99
66102;HTU21D;52883;51.094;5.880;2023-02-13T08:45:31;3.69;118.99
66102;HTU21D;52883;51.094;5.880;2023-02-13T08:47:58;3.57;118.99
66102;HTU21D;52883;51.094;5.880;2023-02-13T08:50:25;3.61;118.99
66102;HTU21D;52883;51.094;5.880;2023-02-13T08:52:52;3.86;118.99
66102;HTU21D;52883;51.094;5.880;2023-02-13T08:55:17;4.22;118.99
66102;HTU21D;52883;51.094;5.880;2023-02-13T08:57:43;4.59;118.99
66102;HTU21D;52883;51.094;5.880;2023-02-13T09:00:09;4.89;118.99
66102;HTU21D;52883;51.094;5.880;2023-02-13T09:02:35;5.17;118.99
66102;HTU21D;52883;51.094;5.880;2023-02-13T09:05:00;5.37;118.99
66102;HTU21D;52883;51.094;5.880;2023-02-13T09:07:26;5.47;118.99
66102;HTU21D;52883;51.094;5.880;2023-02-13T09:09:51;5.39;118.99
66102;HTU21D;52883;51.094;5.880;2023-02-13T09:12:17;5.11;118.99
66102;HTU21D;52883;51.094;5.880;2023-02-13T09:14:43;4.92;118.99
66102;HTU21D;52883;51.094;5.880;2023-02-13T09:17:08;4.86;118.99
66102;HTU21D;52883;51.094;5.880;2023-02-13T09:19:34;4.94;118.99
66102;HTU21D;52883;51.094;5.880;2023-02-13T09:21:59;5.09;118.99
66102;HTU21D;52883;51.094;5.880;2023-02-13T09:24:25;5.15;118.99
66102;HTU21D;52883;51.094;5.880;2023-02-13T09:26:51;5.15;118.99
66102;HTU21D;52883;51.094;5.880;2023-02-13T09:29:16;5.18;118.99
66102;HTU21D;52883;51.094;5.880;2023-02-13T09:31:42;5.22;118.99
66102;HTU21D;52883;51.094;5.880;2023-02-13T09:34:08;5.31;118.99
66102;HTU21D;52883;51.094;5.880;2023-02-13T09:36:34;5.47;118.99
66102;HTU21D;52883;51.094;5.880;2023-02-13T09:39:01;5.67;118.99
66102;HTU21D;52883;51.094;5.880;2023-02-13T09:41:37;5.95;118.99
66102;HTU21D;52883;51.094;5.880;2023-02-13T09:47:26;6.66;118.99
66102;HTU21D;52883;51.094;5.880;2023-02-13T09:49:52;7.04;118.99
66102;HTU21D;52883;51.094;5.880;2023-02-13T09:52:18;7.28;118.99
66102;HTU21D;52883;51.094;5.880;2023-02-13T09:54:44;7.50;118.99
66102;HTU21D;52883;51.094;5.880;2023-02-13T10:00:12;8.00;118.99
66102;HTU21D;52883;51.094;5.880;2023-02-13T10:10:37;8.68;118.99
66102;HTU21D;52883;51.094;5.880;2023-02-13T10:18:47;9.11;118.99
66102;HTU21D;52883;51.094;5.880;2023-02-13T10:21:20;9.30;118.99
66102;HTU21D;52883;51.094;5.880;2023-02-13T10:24:41;9.44;118.99
66102;HTU21D;52883;51.094;5.880;2023-02-13T10:26:43;9.64;118.99
66102;HTU21D;52883;51.094;5.880;2023-02-13T10:29:13;9.72;118.99
66102;HTU21D;52883;51.094;5.880;2023-02-13T10:32:03;9.89;118.99
66102;HTU21D;52883;51.094;5.880;2023-02-13T10:34:37;10.06;118.99
66102;HTU21D;52883;51.094;5.880;2023-02-13T10:37:14;10.15;118.99
66102;HTU21D;52883;51.094;5.880;2023-02-13T10:39:44;10.29;118.99
66102;HTU21D;52883;51.094;5.880;2023-02-13T10:45:12;10.70;118.99
66102;HTU21D;52883;51.094;5.880;2023-02-13T10:50:52;11.24;118.99
66102;HTU21D;52883;51.094;5.880;2023-02-13T10:53:33;11.42;118.99
66102;HTU21D;52883;51.094;5.880;2023-02-13T10:56:22;11.64;118.99
66102;HTU21D;52883;51.094;5.880;2023-02-13T11:01:56;11.86;118.99
66102;HTU21D;52883;51.094;5.880;2023-02-13T11:04:28;12.15;118.99
66102;HTU21D;52883;51.094;5.880;2023-02-13T11:06:59;12.35;118.99
66102;HTU21D;52883;51.094;5.880;2023-02-13T11:09:39;12.52;118.99
66102;HTU21D;52883;51.094;5.880;2023-02-13T11:12:28;12.50;118.99
66102;HTU21D;52883;51.094;5.880;2023-02-13T11:14:56;12.55;118.99
66102;HTU21D;52883;51.094;5.880;2023-02-13T11:17:25;12.63;118.99
66102;HTU21D;52883;51.094;5.880;2023-02-13T11:19:57;12.81;118.99
66102;HTU21D;52883;51.094;5.880;2023-02-13T11:25:02;13.12;118.99
66102;HTU21D;52883;51.094;5.880;2023-02-13T11:27:37;13.38;118.99
66102;HTU21D;52883;51.094;5.880;2023-02-13T11:33:04;13.71;118.99
66102;HTU21D;52883;51.094;5.880;2023-02-13T11:35:35;13.69;118.99
66102;HTU21D;52883;51.094;5.880;2023-02-13T11:40:50;13.93;118.99
66102;HTU21D;52883;51.094;5.880;2023-02-13T11:43:30;14.23;118.99
66102;HTU21D;52883;51.094;5.880;2023-02-13T11:46:09;14.27;118.99
66102;HTU21D;52883;51.094;5.880;2023-02-13T11:48:37;14.41;118.99
66102;HTU21D;52883;51.094;5.880;2023-02-13T11:51:03;14.49;118.99
66102;HTU21D;52883;51.094;5.880;2023-02-13T11:53:35;14.54;118.99
66102;HTU21D;52883;51.094;5.880;2023-02-13T11:56:13;14.78;118.99
66102;HTU21D;52883;51.094;5.880;2023-02-13T11:58:41;14.67;118.99
66102;HTU21D;52883;51.094;5.880;2023-02-13T12:03:35;14.77;118.99
66102;HTU21D;52883;51.094;5.880;2023-02-13T12:06:14;14.85;118.99
66102;HTU21D;52883;51.094;5.880;2023-02-13T12:08:47;14.85;118.99
66102;HTU21D;52883;51.094;5.880;2023-02-13T12:11:21;14.88;118.99
66102;HTU21D;52883;51.094;5.880;2023-02-13T12:13:49;14.99;118.99
66102;HTU21D;52883;51.094;5.880;2023-02-13T12:16:32;15.06;118.99
66102;HTU21D;52883;51.094;5.880;2023-02-13T12:19:05;15.12;118.99
66102;HTU21D;52883;51.094;5.880;2023-02-13T12:35:36;15.34;112.31
66102;HTU21D;52883;51.094;5.880;2023-02-13T12:41:13;15.18;116.92
66102;HTU21D;52883;51.094;5.880;2023-02-13T12:46:46;15.28;118.63
66102;HTU21D;52883;51.094;5.880;2023-02-13T12:52:16;15.57;118.99
66102;HTU21D;52883;51.094;5.880;2023-02-13T12:54:51;15.74;113.47
66102;HTU21D;52883;51.094;5.880;2023-02-13T13:14:51;15.88;116.28
66102;HTU21D;52883;51.094;5.880;2023-02-13T13:17:46;16.02;116.27
66102;HTU21D;52883;51.094;5.880;2023-02-13T13:20:42;16.14;114.81
66102;HTU21D;52883;51.094;5.880;2023-02-13T13:23:28;15.96;115.42
66102;HTU21D;52883;51.094;5.880;2023-02-13T13:28:40;15.78;114.59
66102;HTU21D;52883;51.094;5.880;2023-02-13T13:31:07;15.73;118.10
66102;HTU21D;52883;51.094;5.880;2023-02-13T13:33:38;15.68;118.99
66102;HTU21D;52883;51.094;5.880;2023-02-13T13:36:23;15.65;118.99
66102;HTU21D;52883;51.094;5.880;2023-02-13T13:39:32;15.57;118.99
66102;HTU21D;52883;51.094;5.880;2023-02-13T13:50:00;15.60;112.55
66102;HTU21D;52883;51.094;5.880;2023-02-13T13:52:33;15.56;110.18
66102;HTU21D;52883;51.094;5.880;2023-02-13T13:55:00;15.53;106.76
66102;HTU21D;52883;51.094;5.880;2023-02-13T14:00:27;15.49;109.07
66102;HTU21D;52883;51.094;5.880;2023-02-13T14:03:24;15.23;114.24
66102;HTU21D;52883;51.094;5.880;2023-02-13T14:05:59;15.17;115.48
66102;HTU21D;52883;51.094;5.880;2023-02-13T14:13:51;15.10;116.67
66102;HTU21D;52883;51.094;5.880;2023-02-13T14:19:04;15.10;118.99
66102;HTU21D;52883;51.094;5.880;2023-02-13T14:21:30;15.02;112.89
66102;HTU21D;52883;51.094;5.880;2023-02-13T14:23:58;14.95;115.56
66102;HTU21D;52883;51.094;5.880;2023-02-13T14:26:36;14.85;107.49
66102;HTU21D;52883;51.094;5.880;2023-02-13T14:29:22;14.71;107.96
66102;HTU21D;52883;51.094;5.880;2023-02-13T14:32:12;14.52;106.05
66102;HTU21D;52883;51.094;5.880;2023-02-13T14:34:41;14.39;102.44
66102;HTU21D;52883;51.094;5.880;2023-02-13T14:39:42;14.13;100.15
66102;HTU21D;52883;51.094;5.880;2023-02-13T14:42:27;13.98;101.93
66102;HTU21D;52883;51.094;5.880;2023-02-13T14:45:00;13.92;102.71
66102;HTU21D;52883;51.094;5.880;2023-02-13T14:47:36;13.78;103.50
66102;HTU21D;52883;51.094;5.880;2023-02-13T14:50:07;13.64;105.72
66102;HTU21D;52883;51.094;5.880;2023-02-13T14:52:43;13.48;107.84
66102;HTU21D;52883;51.094;5.880;2023-02-13T14:55:15;13.30;108.06
66102;HTU21D;52883;51.094;5.880;2023-02-13T14:57:58;13.20;106.59
66102;HTU21D;52883;51.094;5.880;2023-02-13T15:00:53;13.09;107.33
66102;HTU21D;52883;51.094;5.880;2023-02-13T15:03:33;13.01;106.23
66102;HTU21D;52883;51.094;5.880;2023-02-13T15:06:04;12.90;107.51
66102;HTU21D;52883;51.094;5.880;2023-02-13T15:08:40;12.80;112.13
66102;HTU21D;52883;51.094;5.880;2023-02-13T15:11:07;12.66;111.13
66102;HTU21D;52883;51.094;5.880;2023-02-13T15:13:52;12.57;112.29
66102;HTU21D;52883;51.094;5.880;2023-02-13T15:16:18;12.59;111.68
66102;HTU21D;52883;51.094;5.880;2023-02-13T15:18:50;12.49;114.98
66102;HTU21D;52883;51.094;5.880;2023-02-13T15:21:21;12.38;116.76
66102;HTU21D;52883;51.094;5.880;2023-02-13T15:23:54;12.30;116.08
66102;HTU21D;52883;51.094;5.880;2023-02-13T15:26:22;12.28;115.83
66102;HTU21D;52883;51.094;5.880;2023-02-13T15:29:03;12.29;115.44
66102;HTU21D;52883;51.094;5.880;2023-02-13T15:31:32;12.20;116.51
66102;HTU21D;52883;51.094;5.880;2023-02-13T15:33:58;12.19;116.65
66102;HTU21D;52883;51.094;5.880;2023-02-13T15:36:25;12.15;117.99
66102;HTU21D;52883;51.094;5.880;2023-02-13T15:38:58;12.15;117.07
66102;HTU21D;52883;51.094;5.880;2023-02-13T15:41:32;12.07;117.09
66102;HTU21D;52883;51.094;5.880;2023-02-13T15:44:00;11.94;118.99
66102;HTU21D;52883;51.094;5.880;2023-02-13T15:48:57;11.90;118.99
66102;HTU21D;52883;51.094;5.880;2023-02-13T15:51:28;11.87;118.99
66102;HTU21D;52883;51.094;5.880;2023-02-13T15:54:06;11.73;118.99
66102;HTU21D;52883;51.094;5.880;2023-02-13T15:56:44;11.67;118.99
66102;HTU21D;52883;51.094;5.880;2023-02-13T15:59:12;11.62;118.99
66102;HTU21D;52883;51.094;5.880;2023-02-13T16:01:40;11.54;118.99
66102;HTU21D;52883;51.094;5.880;2023-02-13T16:04:12;11.45;118.99
66102;HTU21D;52883;51.094;5.880;2023-02-13T16:06:42;11.30;118.99
66102;HTU21D;52883;51.094;5.880;2023-02-13T16:09:39;11.19;118.99
66102;HTU21D;52883;51.094;5.880;2023-02-13T16:14:51;11.00;118.99
66102;HTU21D;52883;51.094;5.880;2023-02-13T16:17:28;10.90;118.99
66102;HTU21D;52883;51.094;5.880;2023-02-13T16:20:00;10.77;118.99
66102;HTU21D;52883;51.094;5.880;2023-02-13T16:25:34;10.39;118.99
66102;HTU21D;52883;51.094;5.880;2023-02-13T16:28:17;10.34;118.99
66102;HTU21D;52883;51.094;5.880;2023-02-13T16:31:02;10.25;118.99
66102;HTU21D;52883;51.094;5.880;2023-02-13T16:33:38;10.09;118.99
66102;HTU21D;52883;51.094;5.880;2023-02-13T16:38:37;9.75;118.99
66102;HTU21D;52883;51.094;5.880;2023-02-13T16:44:00;9.37;118.99
66102;HTU21D;52883;51.094;5.880;2023-02-13T16:46:37;9.22;118.99
66102;HTU21D;52883;51.094;5.880;2023-02-13T16:56:39;8.73;118.99
66102;HTU21D;52883;51.094;5.880;2023-02-13T16:59:26;8.75;118.99
66102;HTU21D;52883;51.094;5.880;2023-02-13T17:07:20;8.15;118.99
66102;HTU21D;52883;51.094;5.880;2023-02-13T17:10:00;7.97;118.99
66102;HTU21D;52883;51.094;5.880;2023-02-13T17:12:28;7.88;118.99
66102;HTU21D;52883;51.094;5.880;2023-02-13T17:14:58;7.74;118.99
66102;HTU21D;52883;51.094;5.880;2023-02-13T17:17:26;7.71;118.99
66102;HTU21D;52883;51.094;5.880;2023-02-13T17:19:52;7.74;118.99
66102;HTU21D;52883;51.094;5.880;2023-02-13T17:22:24;7.68;118.99
66102;HTU21D;52883;51.094;5.880;2023-02-13T17:24:51;7.55;118.99
66102;HTU21D;52883;51.094;5.880;2023-02-13T17:27:17;7.39;118.99
66102;HTU21D;52883;51.094;5.880;2023-02-13T17:29:42;7.25;118.99
66102;HTU21D;52883;51.094;5.880;2023-02-13T17:32:18;7.11;118.99
66102;HTU21D;52883;51.094;5.880;2023-02-13T17:34:44;6.95;118.99
66102;HTU21D;52883;51.094;5.880;2023-02-13T17:37:16;6.81;118.99
66102;HTU21D;52883;51.094;5.880;2023-02-13T17:39:44;6.81;118.99
66102;HTU21D;52883;51.094;5.880;2023-02-13T17:42:20;6.72;118.99
66102;HTU21D;52883;51.094;5.880;2023-02-13T17:44:47;6.59;118.99
66102;HTU21D;52883;51.094;5.880;2023-02-13T17:47:13;6.49;118.99
66102;HTU21D;52883;51.094;5.880;2023-02-13T17:49:38;6.37;118.99
66102;HTU21D;52883;51.094;5.880;2023-02-13T17:52:04;6.29;118.99
66102;HTU21D;52883;51.094;5.880;2023-02-13T17:54:30;6.20;118.99
66102;HTU21D;52883;51.094;5.880;2023-02-13T17:56:58;6.12;118.99
66102;HTU21D;52883;51.094;5.880;2023-02-13T17:59:24;6.15;118.99
66102;HTU21D;52883;51.094;5.880;2023-02-13T18:01:49;6.21;118.99
66102;HTU21D;52883;51.094;5.880;2023-02-13T18:04:15;6.34;118.99
66102;HTU21D;52883;51.094;5.880;2023-02-13T18:06:41;6.54;118.99
66102;HTU21D;52883;51.094;5.880;2023-02-13T18:09:06;6.56;118.99